Time;durP1;ratioP1;P1;durP2;ratioP2;P2;SDS_P1;SDS_P2;PMS_P1;PMS_P2;Temp;Humidity;BMP_temperature;BMP_pressure;BME280_temperature;BME280_humidity;BME280_pressure;Samples;Min_cycle;Max_cycle;Signal;HPM_P1;HPM_P2
2022/08/30 00:01:04;;;;;;;4.93;2.28;;;;;;;18.10;47.20;100671.84;5003534;28;20053;-79
2022/08/30 00:03:40;;;;;;;4.57;2.10;;;;;;;18.06;46.92;100675.75;5004644;28;20137;-79
2022/08/30 00:06:08;;;;;;;6.05;2.20;;;;;;;18.17;47.11;100686.53;5004534;28;20041;-79
2022/08/30 00:08:36;;;;;;;4.43;2.25;;;;;;;17.97;47.30;100652.28;4998757;28;20070;-80
2022/08/30 00:11:08;;;;;;;4.95;2.38;;;;;;;18.08;47.62;100686.38;4994568;28;20072;-78
2022/08/30 00:13:37;;;;;;;4.15;2.03;;;;;;;18.06;47.68;100689.16;5003376;28;20051;-79
2022/08/30 00:16:05;;;;;;;6.15;2.20;;;;;;;18.01;47.93;100687.75;5004009;28;20042;-80
2022/08/30 00:18:33;;;;;;;5.05;2.15;;;;;;;17.87;48.07;100662.84;5005730;28;20117;-81
2022/08/30 00:21:03;;;;;;;4.82;2.00;;;;;;;17.97;48.22;100687.13;5005423;28;20106;-76
2022/08/30 00:23:29;;;;;;;5.97;2.40;;;;;;;17.93;48.49;100685.66;4993123;28;20133;-75
2022/08/30 00:25:56;;;;;;;5.95;2.00;;;;;;;17.94;48.39;100686.53;5005667;28;20198;-77
2022/08/30 00:28:22;;;;;;;10.32;2.03;;;;;;;17.85;48.57;100674.63;5003697;28;20123;-80
2022/08/30 00:30:49;;;;;;;5.35;2.40;;;;;;;17.87;48.51;100683.41;4996824;28;20065;-77
2022/08/30 00:33:16;;;;;;;6.28;2.25;;;;;;;17.77;48.55;100675.19;4999624;28;21668;-79
2022/08/30 00:35:43;;;;;;;3.13;1.98;;;;;;;17.70;48.96;100679.28;5003877;28;20547;-76
2022/08/30 00:38:11;;;;;;;5.65;2.25;;;;;;;17.53;49.12;100660.84;5000769;28;20084;-77
2022/08/30 00:40:42;;;;;;;5.15;2.05;;;;;;;17.59;49.42;100686.34;5002849;28;20088;-78
2022/08/30 00:43:17;;;;;;;3.67;2.17;;;;;;;17.61;49.52;100687.94;5003407;28;20047;-78
2022/08/30 00:45:45;;;;;;;4.15;2.13;;;;;;;17.59;49.70;100679.16;5005679;28;20050;-78
2022/08/30 00:48:12;;;;;;;5.45;2.30;;;;;;;17.53;49.78;100679.59;5000678;28;20131;-73
2022/08/30 00:50:42;;;;;;;5.88;2.10;;;;;;;17.50;49.88;100685.16;5006299;28;20439;-79
2022/08/30 00:53:17;;;;;;;5.63;2.85;;;;;;;17.34;50.15;100668.47;5005733;28;20046;-77
2022/08/30 00:55:45;;;;;;;7.93;2.58;;;;;;;17.25;50.26;100658.44;5006614;28;20090;-80
2022/08/30 00:58:20;;;;;;;5.20;2.50;;;;;;;17.34;50.42;100695.25;5000229;28;20076;-78
2022/08/30 01:00:53;;;;;;;11.10;2.53;;;;;;;17.28;50.86;100704.56;5004069;28;20046;-76
2022/08/30 01:03:20;;;;;;;7.85;2.47;;;;;;;17.25;50.70;100703.94;4995838;28;20054;-77
2022/08/30 01:05:49;;;;;;;5.43;2.53;;;;;;;17.24;50.54;100704.88;5004984;28;20080;-80
2022/08/30 01:08:16;;;;;;;6.43;2.35;;;;;;;17.22;50.89;100705.00;5001656;28;20095;-77
2022/08/30 01:10:43;;;;;;;6.57;2.72;;;;;;;17.21;51.10;100715.81;4995924;28;20109;-79
2022/08/30 01:13:12;;;;;;;4.07;2.10;;;;;;;17.17;50.86;100705.31;5002100;28;20050;-75
2022/08/30 01:15:40;;;;;;;4.28;2.20;;;;;;;17.16;51.04;100697.38;5001707;28;20514;-81
2022/08/30 01:18:10;;;;;;;3.83;2.17;;;;;;;17.16;51.25;100703.59;4996957;28;20074;-81
2022/08/30 01:21:34;;;;;;;6.15;2.42;;;;;;;17.16;51.48;100700.06;4980903;28;20207;-75
2022/08/30 01:24:02;;;;;;;5.80;2.25;;;;;;;17.02;51.43;100676.06;5002973;28;20050;-78
2022/08/30 01:26:30;;;;;;;3.45;2.20;;;;;;;17.09;51.55;100705.00;4996516;28;20084;-77
2022/08/30 01:29:01;;;;;;;8.80;2.42;;;;;;;17.04;52.28;100708.94;5000268;28;20050;-79
2022/08/30 01:31:27;;;;;;;;;;;;;;;16.98;52.44;100704.88;5004697;28;20034;-79
2022/08/30 01:33:54;;;;;;;4.72;2.28;;;;;;;16.95;52.37;100707.75;5001055;28;19947;-81
2022/08/30 01:36:21;;;;;;;6.35;2.17;;;;;;;16.90;52.76;100706.34;5001095;28;20562;-81
2022/08/30 01:38:52;;;;;;;3.80;2.15;;;;;;;16.83;53.05;100700.59;5003510;28;20064;-79
2022/08/30 01:41:45;;;;;;;5.18;2.08;;;;;;;16.75;53.20;100695.72;5015315;28;20049;-73
2022/08/30 01:44:13;;;;;;;5.93;2.30;;;;;;;16.59;53.67;100670.97;5014815;28;20042;-78
2022/08/30 01:46:44;;;;;;;5.68;2.33;;;;;;;16.71;53.58;100683.53;5003904;28;20079;-77
2022/08/30 01:49:13;;;;;;;3.80;2.38;;;;;;;16.71;54.06;100678.19;5003583;28;20053;-78
2022/08/30 01:51:41;;;;;;;4.10;2.30;;;;;;;16.76;54.02;100684.06;5020926;28;20121;-79
2022/08/30 01:54:08;;;;;;;3.20;2.22;;;;;;;16.72;53.83;100693.25;5020526;28;20438;-78
2022/08/30 01:56:35;;;;;;;5.30;2.05;;;;;;;16.71;54.13;100696.03;5016817;28;20156;-77
2022/08/30 01:59:02;;;;;;;5.28;2.33;;;;;;;16.54;54.28;100672.22;5028609;28;20038;-78
2022/08/30 02:01:35;;;;;;;5.63;2.10;;;;;;;16.54;54.73;100666.88;5029550;28;20058;-73
2022/08/30 02:04:03;;;;;;;5.35;2.35;;;;;;;16.72;54.34;100697.75;5013421;28;20143;-78
2022/08/30 02:06:30;;;;;;;4.60;1.98;;;;;;;16.53;54.41;100658.00;5022832;28;20514;-76
2022/08/30 02:08:57;;;;;;;3.85;2.25;;;;;;;16.62;54.76;100685.94;5014346;28;20079;-74
2022/08/30 02:11:24;;;;;;;4.20;2.17;;;;;;;16.53;54.86;100670.53;5031633;28;20079;-77
2022/08/30 02:13:50;;;;;;;3.65;2.30;;;;;;;16.58;55.22;100679.09;5017948;28;20053;-77
2022/08/30 02:16:21;;;;;;;4.55;2.03;;;;;;;16.61;55.06;100684.22;5008269;28;20046;-74
2022/08/30 02:18:50;;;;;;;3.90;1.90;;;;;;;16.59;55.36;100683.47;5006816;28;20077;-79
2022/08/30 02:21:17;;;;;;;7.13;2.22;;;;;;;16.62;55.34;100688.63;5009775;28;20491;-77
2022/08/30 02:23:44;;;;;;;5.93;1.88;;;;;;;16.61;55.71;100692.25;5010455;28;20050;-77
2022/08/30 02:26:12;;;;;;;5.43;2.45;;;;;;;16.60;55.84;100685.19;5004942;28;20042;-76
2022/08/30 02:28:39;;;;;;;5.55;2.25;;;;;;;16.57;55.74;100691.59;5015925;28;20038;-75
2022/08/30 02:31:15;;;;;;;3.50;2.15;;;;;;;16.43;55.78;100679.16;5020990;28;20050;-71
2022/08/30 02:33:44;;;;;;;4.57;2.20;;;;;;;16.49;55.98;100689.44;5022867;28;20046;-74
2022/08/30 02:36:12;;;;;;;3.70;2.00;;;;;;;16.48;56.25;100690.41;5017547;28;20200;-73
2022/08/30 02:38:38;;;;;;;4.45;2.20;;;;;;;16.36;56.18;100666.31;5003199;28;20077;-78
2022/08/30 02:41:05;;;;;;;4.30;1.98;;;;;;;16.46;56.38;100681.63;5003425;28;20046;-77
2022/08/30 02:43:32;;;;;;;6.60;2.28;;;;;;;16.45;56.58;100689.75;5004346;28;20157;-76
2022/08/30 02:45:58;;;;;;;6.20;2.33;;;;;;;16.44;56.32;100696.03;5002523;28;20138;-76
2022/08/30 02:48:25;;;;;;;8.05;2.63;;;;;;;16.39;56.41;100685.66;5006903;28;20516;-77
2022/08/30 02:50:51;;;;;;;6.03;2.30;;;;;;;16.24;56.98;100664.44;5007451;28;20081;-78
2022/08/30 02:53:20;;;;;;;5.82;2.10;;;;;;;16.40;57.09;100690.03;5002636;28;20084;-80
2022/08/30 02:55:48;;;;;;;6.32;2.15;;;;;;;16.36;56.87;100695.72;5006719;28;20053;-80
2022/08/30 02:58:15;;;;;;;4.13;2.05;;;;;;;16.32;57.38;100689.72;5004809;28;20102;-75
2022/08/30 03:00:41;;;;;;;3.72;2.10;;;;;;;16.26;57.41;100681.22;5004578;28;20206;-79
2022/08/30 03:03:08;;;;;;;3.67;2.38;;;;;;;16.20;57.88;100654.94;5002477;28;20052;-74
2022/08/30 03:05:35;;;;;;;3.88;2.20;;;;;;;16.34;57.72;100668.22;5003174;28;20073;-81
2022/08/30 03:08:06;;;;;;;4.28;2.20;;;;;;;16.32;57.57;100675.50;5003444;28;20099;-79
2022/08/30 03:10:33;;;;;;;3.97;1.83;;;;;;;16.22;57.91;100675.22;5004939;28;20066;-81
2022/08/30 03:13:00;;;;;;;4.43;2.33;;;;;;;16.19;58.79;100672.78;5004927;28;20054;-78
2022/08/30 03:15:27;;;;;;;5.22;2.20;;;;;;;16.13;58.67;100682.03;5002566;28;20476;-78
2022/08/30 03:17:54;;;;;;;7.47;2.47;;;;;;;16.08;58.85;100675.28;5006269;28;20676;-79
2022/08/30 03:20:22;;;;;;;4.50;2.20;;;;;;;16.05;59.13;100665.66;5003844;28;20050;-76
2022/08/30 03:22:49;;;;;;;5.80;2.35;;;;;;;16.07;59.13;100661.06;5000064;28;20535;-78
2022/08/30 03:25:16;;;;;;;4.53;2.30;;;;;;;16.13;58.98;100670.50;5007330;28;20042;-79
2022/08/30 03:27:43;;;;;;;9.48;2.45;;;;;;;16.14;58.93;100669.53;5006067;28;20126;-75
2022/08/30 03:30:10;;;;;;;4.78;2.33;;;;;;;16.07;59.35;100658.38;5002083;28;20061;-78
2022/08/30 03:32:39;;;;;;;6.47;2.45;;;;;;;15.98;59.64;100642.97;5002224;28;20045;-76
2022/08/30 03:35:09;;;;;;;3.92;2.10;;;;;;;16.10;59.48;100665.34;5002625;28;20052;-77
2022/08/30 03:37:35;;;;;;;5.03;2.30;;;;;;;16.14;59.63;100646.34;5001596;28;20198;-74
2022/08/30 03:40:06;;;;;;;3.88;2.28;;;;;;;16.21;59.46;100662.00;5003342;28;20461;-80
2022/08/30 03:42:33;;;;;;;4.05;2.15;;;;;;;16.07;59.59;100646.84;5006131;28;20114;-79
2022/08/30 03:45:01;;;;;;;5.35;2.67;;;;;;;16.16;59.52;100666.78;5003117;28;20481;-80
2022/08/30 03:47:28;;;;;;;3.33;2.13;;;;;;;16.18;59.67;100671.06;5004760;28;20050;-74
2022/08/30 03:49:55;;;;;;;3.65;2.10;;;;;;;16.16;59.81;100670.28;4999075;28;20099;-76
2022/08/30 03:52:22;;;;;;;4.75;2.20;;;;;;;16.14;59.83;100665.06;5005152;28;20128;-79
2022/08/30 03:54:49;;;;;;;3.33;2.10;;;;;;;15.98;60.19;100632.28;5006873;28;20046;-81
2022/08/30 03:57:15;;;;;;;3.72;2.28;;;;;;;16.07;60.15;100645.03;5005460;28;20058;-77
2022/08/30 03:59:49;;;;;;;4.20;2.20;;;;;;;16.09;60.03;100643.13;5005257;28;20056;-79
2022/08/30 04:02:16;;;;;;;3.75;2.20;;;;;;;16.23;60.33;100663.56;5005459;28;20135;-79
2022/08/30 04:04:43;;;;;;;4.35;2.20;;;;;;;16.23;59.95;100663.56;5005691;28;20046;-81
2022/08/30 04:07:09;;;;;;;5.15;2.30;;;;;;;15.99;60.30;100643.81;5003891;28;20122;-80
2022/08/30 04:09:36;;;;;;;4.93;2.22;;;;;;;16.11;60.84;100664.38;5007572;28;20111;-73
2022/08/30 04:12:03;;;;;;;5.75;2.67;;;;;;;15.98;60.80;100640.31;5010011;28;20525;-78
2022/08/30 04:14:30;;;;;;;6.15;2.60;;;;;;;16.09;60.97;100674.31;5016604;28;20065;-79
2022/08/30 04:16:56;;;;;;;4.22;2.40;;;;;;;16.12;61.31;100676.78;5015911;28;20137;-74
2022/08/30 04:19:23;;;;;;;6.38;2.38;;;;;;;16.11;61.31;100680.41;5016145;28;20064;-78
2022/08/30 04:21:50;;;;;;;6.93;2.40;;;;;;;16.06;61.38;100677.19;5017016;28;20086;-80
2022/08/30 04:24:16;;;;;;;4.95;2.20;;;;;;;15.97;62.03;100672.44;5006339;28;20073;-77
2022/08/30 04:26:43;;;;;;;3.78;2.00;;;;;;;15.91;62.28;100668.34;5004203;28;20047;-76
2022/08/30 04:29:15;;;;;;;3.33;2.40;;;;;;;15.88;62.38;100678.41;5002290;28;20099;-78
2022/08/30 04:31:43;;;;;;;6.47;2.65;;;;;;;15.79;62.74;100670.00;5001376;28;20087;-77
2022/08/30 04:34:10;;;;;;;6.38;2.50;;;;;;;15.73;62.94;100659.75;5003756;28;20565;-76
2022/08/30 04:36:37;;;;;;;7.38;2.60;;;;;;;15.75;63.34;100664.94;5000783;28;20058;-76
2022/08/30 04:39:05;;;;;;;6.18;2.50;;;;;;;15.82;63.36;100670.75;5004884;28;20136;-76
2022/08/30 04:41:32;;;;;;;4.88;2.40;;;;;;;15.71;63.38;100655.44;5000323;28;20136;-75
2022/08/30 04:44:02;;;;;;;4.10;2.45;;;;;;;15.78;63.42;100678.97;5004798;28;20114;-76
2022/08/30 04:46:29;;;;;;;6.75;2.75;;;;;;;15.73;63.55;100670.41;4997562;28;20053;-76
2022/08/30 04:48:55;;;;;;;4.20;2.60;;;;;;;15.65;63.66;100659.34;4994136;28;20051;-78
2022/08/30 04:51:22;;;;;;;7.88;2.67;;;;;;;15.70;63.78;100665.28;4995614;28;20050;-73
2022/08/30 04:53:49;;;;;;;4.97;2.60;;;;;;;15.77;63.48;100677.25;4997230;28;20117;-74
2022/08/30 04:56:21;;;;;;;6.22;2.47;;;;;;;15.75;63.77;100679.16;5002882;28;20089;-76
2022/08/30 04:58:50;;;;;;;4.88;2.40;;;;;;;15.77;63.55;100687.06;5001271;28;20106;-76
2022/08/30 05:01:23;;;;;;;5.70;2.78;;;;;;;15.82;64.04;100690.31;4997834;28;20053;-75
2022/08/30 05:03:53;;;;;;;10.32;2.90;;;;;;;15.70;63.94;100670.59;5005885;28;20053;-77
2022/08/30 05:06:21;;;;;;;4.93;2.78;;;;;;;15.71;64.01;100675.00;5009614;28;20073;-75
2022/08/30 05:08:48;;;;;;;4.55;2.53;;;;;;;15.86;64.09;100686.50;5004921;28;20083;-77
2022/08/30 05:11:16;;;;;;;5.55;3.00;;;;;;;15.72;64.23;100662.50;4998520;28;20474;-76
2022/08/30 05:13:43;;;;;;;4.72;2.65;;;;;;;15.92;63.92;100691.44;5003567;28;20099;-72
2022/08/30 05:16:16;;;;;;;4.97;2.60;;;;;;;15.92;64.25;100696.78;4999151;28;20062;-75
2022/08/30 05:18:44;;;;;;;8.82;2.63;;;;;;;15.96;64.00;100705.44;5001776;28;20550;-75
2022/08/30 05:21:14;;;;;;;4.68;2.90;;;;;;;15.95;64.41;100699.25;5000299;28;20108;-79
2022/08/30 05:23:43;;;;;;;4.25;2.58;;;;;;;15.85;64.10;100673.25;5002767;28;20046;-78
2022/08/30 05:26:15;;;;;;;5.80;2.50;;;;;;;15.97;64.49;100693.81;5002395;28;20062;-72
2022/08/30 05:28:42;;;;;;;5.88;3.03;;;;;;;16.02;64.46;100694.38;5000366;28;20073;-76
2022/08/30 05:31:14;;;;;;;4.40;2.47;;;;;;;16.06;64.68;100698.53;5001887;28;20081;-76
2022/08/30 05:33:43;;;;;;;4.90;2.67;;;;;;;16.11;64.41;100709.81;4994440;28;20168;-74
2022/08/30 05:36:12;;;;;;;5.80;2.80;;;;;;;16.08;64.33;100689.47;4998387;28;20059;-73
2022/08/30 05:38:39;;;;;;;7.40;2.67;;;;;;;16.30;64.41;100717.47;4997667;28;20099;-74
2022/08/30 05:41:08;;;;;;;5.63;2.53;;;;;;;16.33;64.04;100709.28;5002228;28;20089;-76
2022/08/30 05:43:37;;;;;;;4.32;2.65;;;;;;;16.40;63.72;100710.56;4996612;28;20584;-80
2022/08/30 05:46:10;;;;;;;5.65;2.78;;;;;;;16.44;65.02;100714.75;4991780;28;20038;-78
2022/08/30 05:48:38;;;;;;;5.68;2.70;;;;;;;16.40;66.00;100711.41;4990438;28;20052;-74
2022/08/30 05:51:13;;;;;;;6.75;2.70;;;;;;;16.40;65.07;100722.13;4995098;28;20050;-78
2022/08/30 05:53:40;;;;;;;7.40;3.17;;;;;;;16.46;65.27;100719.06;4996832;28;20561;-76
2022/08/30 05:56:12;;;;;;;6.63;2.88;;;;;;;16.35;65.03;100699.34;4987897;28;20038;-78
2022/08/30 05:58:39;;;;;;;4.35;2.60;;;;;;;16.43;65.71;100697.88;5000535;28;20076;-79
2022/08/30 06:01:06;;;;;;;5.35;3.25;;;;;;;16.58;65.73;100721.84;4996438;28;20103;-80
2022/08/30 06:03:34;;;;;;;5.95;2.75;;;;;;;16.60;66.11;100720.81;4996712;28;20042;-75
2022/08/30 06:06:02;;;;;;;6.00;2.80;;;;;;;16.68;65.13;100731.03;5002798;28;20081;-77
2022/08/30 06:08:29;;;;;;;7.10;2.67;;;;;;;16.73;64.89;100727.06;4994042;28;20137;-79
2022/08/30 06:10:55;;;;;;;6.35;2.53;;;;;;;16.76;64.45;100723.34;4994316;28;20144;-75
2022/08/30 06:13:22;;;;;;;6.15;2.92;;;;;;;16.88;63.49;100722.50;4995465;28;20177;-80
2022/08/30 06:15:49;;;;;;;6.05;3.10;;;;;;;16.98;63.44;100728.97;4997767;28;20050;-81
2022/08/30 06:18:16;;;;;;;5.57;3.13;;;;;;;17.05;62.93;100719.53;4994514;28;20046;-82
2022/08/30 06:20:50;;;;;;;5.55;2.38;;;;;;;17.07;62.96;100704.22;4994741;28;20589;-81
2022/08/30 06:23:16;;;;;;;7.13;2.83;;;;;;;17.31;62.55;100717.75;4996659;28;21960;-78
2022/08/30 06:25:43;;;;;;;4.93;3.13;;;;;;;17.37;62.02;100705.75;4999153;28;20049;-79
2022/08/30 06:28:10;;;;;;;6.72;2.83;;;;;;;17.56;62.05;100710.66;4992959;28;20057;-79
2022/08/30 06:30:40;;;;;;;8.30;3.30;;;;;;;17.68;61.28;100710.66;5002529;28;20504;-79
2022/08/30 06:33:07;;;;;;;6.95;2.78;;;;;;;17.74;60.88;100693.31;4986629;28;20069;-79
2022/08/30 06:35:35;;;;;;;9.27;3.10;;;;;;;18.00;60.92;100715.53;4997875;28;20054;-75
2022/08/30 06:38:21;;;;;;;5.95;3.15;;;;;;;18.16;60.04;100721.47;4994313;28;20111;-82
2022/08/30 06:40:49;;;;;;;5.40;2.72;;;;;;;18.44;58.63;100715.78;4997518;28;20129;-78
2022/08/30 06:43:16;;;;;;;6.25;2.60;;;;;;;18.54;58.13;100705.25;4995399;28;20050;-77
2022/08/30 06:45:43;;;;;;;5.55;2.42;;;;;;;18.89;57.06;100718.69;4994212;28;20054;-79
2022/08/30 06:48:09;;;;;;;7.03;3.00;;;;;;;19.14;56.79;100715.84;4996995;28;20065;-80
2022/08/30 06:50:36;;;;;;;6.25;2.80;;;;;;;19.40;54.81;100715.63;5016902;28;20042;-72
2022/08/30 06:53:04;;;;;;;9.32;2.70;;;;;;;19.56;54.35;100714.31;5018930;28;20033;-72
2022/08/30 06:55:32;;;;;;;9.43;3.25;;;;;;;19.72;53.64;100715.78;5019755;28;20058;-74
2022/08/30 06:57:59;;;;;;;7.95;3.00;;;;;;;19.84;53.01;100720.16;5007027;28;20042;-79
2022/08/30 07:00:26;;;;;;;5.80;2.88;;;;;;;19.82;52.64;100701.50;5004970;28;20134;-79
2022/08/30 07:02:53;;;;;;;4.70;2.72;;;;;;;19.92;52.28;100702.47;4987326;28;20046;-80
2022/08/30 07:05:22;;;;;;;7.72;2.80;;;;;;;20.22;51.72;100728.69;5004078;28;20674;-80
2022/08/30 07:07:52;;;;;;;5.22;2.95;;;;;;;20.37;51.54;100726.59;5002086;28;20041;-79
2022/08/30 07:10:20;;;;;;;6.18;3.10;;;;;;;20.48;51.20;100726.56;4997848;28;20512;-80
2022/08/30 07:12:47;;;;;;;3.63;2.47;;;;;;;20.64;50.48;100716.22;5001649;28;20050;-77
2022/08/30 07:15:14;;;;;;;5.90;2.65;;;;;;;20.98;49.97;100726.84;4999676;28;20089;-79
2022/08/30 07:20:28;;;;;;;4.65;2.90;;;;;;;21.16;48.83;100730.66;4997231;28;20085;-79
2022/08/30 07:23:07;;;;;;;6.10;3.10;;;;;;;21.09;48.39;100734.88;5001800;28;20072;-80
2022/08/30 07:25:36;;;;;;;5.63;2.42;;;;;;;20.90;48.88;100721.25;5001554;28;20046;-78
2022/08/30 07:28:04;;;;;;;8.13;2.80;;;;;;;20.96;48.89;100747.63;4991804;28;20123;-72
2022/08/30 07:30:32;;;;;;;5.90;2.45;;;;;;;21.05;49.33;100737.94;4994761;28;20046;-72
2022/08/30 07:32:58;;;;;;;6.28;2.58;;;;;;;21.23;49.69;100744.50;4993593;28;20045;-71
2022/08/30 07:35:26;;;;;;;8.88;2.90;;;;;;;21.36;48.77;100728.97;4998684;28;20058;-72
2022/08/30 07:37:52;;;;;;;5.80;2.85;;;;;;;21.67;48.61;100735.22;4991965;28;20480;-72
2022/08/30 07:40:19;;;;;;;6.65;2.83;;;;;;;21.89;47.87;100743.09;4994910;28;20145;-73
2022/08/30 07:42:46;;;;;;;8.38;3.00;;;;;;;22.12;47.57;100730.31;4995280;28;20053;-73
2022/08/30 07:45:12;;;;;;;4.07;2.58;;;;;;;22.55;46.13;100737.19;4995946;28;20045;-73
2022/08/30 07:47:40;;;;;;;6.60;2.80;;;;;;;22.96;45.47;100738.81;4995530;28;20050;-73
2022/08/30 07:50:07;;;;;;;4.30;2.40;;;;;;;23.21;44.93;100715.75;4995382;28;20050;-73
2022/08/30 07:52:34;;;;;;;4.10;2.70;;;;;;;23.68;43.00;100744.53;4995420;28;20506;-72
2022/08/30 07:55:01;;;;;;;4.00;2.28;;;;;;;23.57;42.04;100736.59;4995392;28;20053;-72
2022/08/30 07:57:30;;;;;;;5.85;2.05;;;;;;;23.50;41.87;100742.69;4993506;28;20085;-72
2022/08/30 07:59:59;;;;;;;6.10;2.55;;;;;;;23.53;41.68;100739.72;4997447;28;20053;-72
2022/08/30 08:02:26;;;;;;;7.50;2.65;;;;;;;23.45;41.69;100735.03;4996888;28;20053;-73
2022/08/30 08:04:53;;;;;;;5.90;2.50;;;;;;;23.08;42.38;100721.47;5002534;28;20129;-73
2022/08/30 08:07:20;;;;;;;6.47;2.70;;;;;;;23.16;41.56;100742.34;4999116;28;20085;-73
2022/08/30 08:09:47;;;;;;;6.57;2.53;;;;;;;23.18;41.94;100752.00;4993758;28;20406;-72
2022/08/30 08:12:13;;;;;;;6.53;2.22;;;;;;;23.08;42.22;100751.19;4994465;28;20051;-71
2022/08/30 08:14:40;;;;;;;6.28;2.40;;;;;;;22.99;42.01;100727.72;4991609;28;20077;-72
2022/08/30 08:17:07;;;;;;;4.88;2.53;;;;;;;23.08;42.46;100741.22;4992786;28;20102;-73
2022/08/30 08:19:33;;;;;;;4.93;2.83;;;;;;;23.12;42.31;100749.91;4993831;28;20035;-73
2022/08/30 08:22:01;;;;;;;5.07;2.70;;;;;;;23.19;41.88;100733.94;4980702;28;20138;-76
2022/08/30 08:24:47;;;;;;;2.75;2.00;;;;;;;23.19;43.12;100739.34;4996946;28;20135;-73
2022/08/30 08:27:14;;;;;;;6.47;2.22;;;;;;;23.28;42.82;100739.34;4991840;28;20081;-74
2022/08/30 08:29:41;;;;;;;4.15;2.35;;;;;;;23.33;42.23;100742.44;4994103;28;20137;-73
2022/08/30 08:32:07;;;;;;;5.70;2.58;;;;;;;23.15;42.07;100727.13;5029950;28;20127;-72
2022/08/30 08:34:35;;;;;;;7.50;2.70;;;;;;;23.28;42.38;100749.31;5003520;28;21399;-73
2022/08/30 08:37:02;;;;;;;5.70;2.75;;;;;;;23.32;42.12;100729.06;4995992;28;20070;-72
2022/08/30 08:39:29;;;;;;;6.30;2.60;;;;;;;23.47;42.08;100751.09;4990625;28;20153;-72
2022/08/30 08:42:33;;;;;;;5.90;2.55;;;;;;;23.76;41.66;100752.75;5000262;28;20045;-73
2022/08/30 08:45:12;;;;;;;6.80;2.50;;;;;;;24.13;40.71;100731.06;4994975;28;20494;-73
2022/08/30 08:47:46;;;;;;;6.70;3.17;;;;;;;24.26;40.76;100738.00;4997926;28;20439;-74
2022/08/30 08:50:19;;;;;;;5.53;2.30;;;;;;;24.07;41.32;100734.41;4996647;28;20055;-72
2022/08/30 08:55:56;;;;;;;5.72;2.60;;;;;;;23.48;42.14;100739.28;4993943;28;20038;-72
2022/08/30 08:58:26;;;;;;;10.65;2.60;;;;;;;23.28;42.39;100743.91;4991414;28;20051;-73
2022/08/30 09:00:55;;;;;;;;;;;;;;;23.17;42.88;100747.59;4999469;28;20133;-72
2022/08/30 09:03:25;;;;;;;4.70;2.60;;;;;;;23.04;43.06;100720.03;4998091;28;19959;-73
2022/08/30 09:05:52;;;;;;;6.03;2.45;;;;;;;23.18;43.34;100730.38;4998888;28;20070;-73
2022/08/30 09:08:21;;;;;;;9.90;2.80;;;;;;;23.29;42.75;100732.94;4995731;28;20155;-75
2022/08/30 09:11:00;;;;;;;6.82;2.45;;;;;;;23.39;42.61;100732.91;4995061;28;20128;-76
2022/08/30 09:13:27;;;;;;;7.22;2.70;;;;;;;23.42;41.85;100724.53;4993746;28;20718;-75
2022/08/30 09:15:56;;;;;;;5.40;2.47;;;;;;;23.43;42.03;100727.06;4996446;28;20039;-73
2022/08/30 09:18:44;;;;;;;9.90;2.38;;;;;;;23.44;41.63;100722.53;4996286;28;20069;-74
2022/08/30 09:21:26;;;;;;;7.35;2.72;;;;;;;23.37;41.55;100719.53;4994615;28;20046;-74
2022/08/30 09:24:03;;;;;;;8.05;2.88;;;;;;;23.38;41.74;100718.56;4992873;28;20496;-73
2022/08/30 09:26:35;;;;;;;5.70;2.60;;;;;;;23.48;42.00;100710.41;4991945;28;20050;-74
2022/08/30 09:29:04;;;;;;;6.88;2.40;;;;;;;23.56;41.66;100704.31;4996209;28;20049;-75
2022/08/30 09:31:44;;;;;;;6.22;2.97;;;;;;;23.77;41.61;100704.91;4999436;28;20435;-74
2022/08/30 09:34:17;;;;;;;5.35;2.83;;;;;;;23.79;41.78;100686.69;4992690;28;20146;-74
2022/08/30 09:36:45;;;;;;;5.40;2.67;;;;;;;23.90;40.54;100691.91;4993476;28;20488;-75
2022/08/30 09:39:25;;;;;;;10.27;2.55;;;;;;;24.08;40.28;100690.06;4991494;28;20125;-74
2022/08/30 09:41:54;;;;;;;5.50;2.67;;;;;;;24.07;40.03;100692.97;4991598;28;20129;-74
2022/08/30 09:44:30;;;;;;;7.40;2.53;;;;;;;24.22;40.00;100704.97;4981160;28;20141;-76
2022/08/30 09:47:00;;;;;;;7.47;2.58;;;;;;;24.32;39.48;100699.50;4994098;28;20077;-76
2022/08/30 09:49:33;;;;;;;4.60;2.47;;;;;;;24.42;38.99;100700.28;4999592;28;20092;-76
2022/08/30 09:52:10;;;;;;;9.95;2.50;;;;;;;24.47;38.96;100695.28;5001429;28;20066;-76
2022/08/30 09:55:20;;;;;;;5.57;2.15;;;;;;;24.34;38.71;100686.69;4994658;28;20077;-76
2022/08/30 09:58:07;;;;;;;3.58;2.42;;;;;;;24.48;38.96;100688.84;4999848;28;20209;-76
2022/08/30 10:00:48;;;;;;;5.40;2.50;;;;;;;24.64;38.96;100691.72;4999596;28;20085;-76
2022/08/30 10:03:40;;;;;;;7.50;2.63;;;;;;;24.63;38.22;100673.75;5001005;28;20077;-76
2022/08/30 10:06:44;;;;;;;5.65;2.30;;;;;;;24.82;37.82;100684.44;4992051;28;20053;-76
2022/08/30 10:09:31;;;;;;;4.82;2.38;;;;;;;24.96;38.08;100671.34;4994582;28;20046;-75
2022/08/30 10:12:12;;;;;;;3.92;2.60;;;;;;;24.99;36.53;100660.22;4997126;28;20057;-75
2022/08/30 10:15:09;;;;;;;5.82;2.53;;;;;;;25.13;36.62;100660.47;4996322;28;20050;-73
2022/08/30 10:17:57;;;;;;;5.68;2.30;;;;;;;25.38;35.45;100661.47;5000245;28;20064;-75
2022/08/30 10:20:35;;;;;;;9.00;2.40;;;;;;;25.50;35.36;100657.44;4978928;28;20050;-73
2022/08/30 10:23:23;;;;;;;4.03;2.67;;;;;;;25.67;35.55;100652.13;4986935;28;20046;-76
2022/08/30 10:26:04;;;;;;;4.40;2.38;;;;;;;25.93;35.35;100652.94;4999622;28;20046;-75
2022/08/30 10:28:43;;;;;;;5.17;2.17;;;;;;;26.18;33.94;100649.25;4995802;28;20124;-74
2022/08/30 10:31:38;;;;;;;4.50;2.30;;;;;;;26.29;32.96;100647.28;4999138;28;20853;-74
2022/08/30 10:34:10;;;;;;;4.50;2.22;;;;;;;26.21;32.68;100626.38;4998323;28;20065;-74
2022/08/30 10:36:43;;;;;;;7.22;2.20;;;;;;;26.42;32.92;100640.34;4995113;28;20078;-74
2022/08/30 10:39:18;;;;;;;3.72;2.00;;;;;;;26.41;31.72;100624.22;4996805;28;20484;-74
2022/08/30 10:41:49;;;;;;;4.18;2.00;;;;;;;26.64;31.82;100646.09;4996739;28;20050;-74
2022/08/30 10:44:33;;;;;;;5.38;2.10;;;;;;;26.74;31.42;100635.94;4997873;28;20072;-74
2022/08/30 10:47:36;;;;;;;4.80;1.95;;;;;;;26.72;31.31;100646.13;4995895;28;20730;-75
2022/08/30 10:50:13;;;;;;;13.10;2.70;;;;;;;26.77;31.16;100633.72;4996958;28;20049;-74
2022/08/30 10:52:51;;;;;;;5.20;2.33;;;;;;;26.73;30.93;100640.53;5000066;28;20053;-73
2022/08/30 10:55:24;;;;;;;4.55;1.98;;;;;;;26.73;31.26;100635.09;4995657;28;20050;-75
2022/08/30 10:57:51;;;;;;;4.72;2.05;;;;;;;26.83;31.01;100633.03;4998907;28;20528;-75
2022/08/30 11:00:29;;;;;;;3.65;2.10;;;;;;;26.98;30.11;100627.78;5003141;28;20134;-75
2022/08/30 11:03:35;;;;;;;3.15;1.83;;;;;;;27.12;30.46;100631.66;5005358;28;20149;-75
2022/08/30 11:06:15;;;;;;;6.00;2.15;;;;;;;27.19;30.39;100629.97;4994333;28;20080;-74
2022/08/30 11:09:00;;;;;;;5.28;2.78;;;;;;;27.25;31.26;100630.09;4993520;28;20472;-75
2022/08/30 11:11:53;;;;;;;3.97;2.05;;;;;;;27.38;30.09;100626.84;5004316;28;20046;-74
2022/08/30 11:14:20;;;;;;;6.13;1.90;;;;;;;27.33;30.53;100606.63;5000305;28;20490;-75
2022/08/30 11:16:53;;;;;;;6.13;2.10;;;;;;;27.32;30.30;100619.38;5002452;28;20133;-75
2022/08/30 11:19:25;;;;;;;5.43;2.17;;;;;;;27.31;30.43;100622.28;5000773;28;20057;-74
2022/08/30 11:22:13;;;;;;;4.40;2.10;;;;;;;27.35;30.67;100610.88;4986964;28;20060;-75
2022/08/30 11:24:59;;;;;;;4.68;2.30;;;;;;;27.43;30.20;100616.28;4997777;28;20042;-75
2022/08/30 11:27:44;;;;;;;4.95;2.50;;;;;;;27.49;30.78;100614.72;5009415;28;20058;-75
2022/08/30 11:30:23;;;;;;;10.45;2.00;;;;;;;27.57;31.68;100612.00;5007007;28;20115;-74
2022/08/30 11:33:10;;;;;;;2.83;1.80;;;;;;;27.73;30.69;100616.50;5000982;28;20066;-74
2022/08/30 11:35:43;;;;;;;9.30;2.50;;;;;;;27.81;29.82;100608.31;4998473;28;20405;-75
2022/08/30 11:38:26;;;;;;;5.72;2.28;;;;;;;27.85;29.93;100613.25;5004591;28;20148;-77
2022/08/30 11:40:55;;;;;;;4.43;2.45;;;;;;;27.89;29.99;100600.94;5002090;28;20062;-76
2022/08/30 11:43:34;;;;;;;4.75;2.20;;;;;;;27.82;29.69;100599.13;5002736;28;20607;-75
2022/08/30 11:46:26;;;;;;;5.82;2.38;;;;;;;27.67;29.53;100581.88;5001424;28;20046;-75
2022/08/30 11:49:21;;;;;;;2.95;2.35;;;;;;;27.81;30.51;100595.56;4994628;28;20060;-74